sensor_id;sensor_type;location;lat;lon;timestamp;temperature;humidity
3866;DHT22;1948;53.250;10.412;2024-01-06T00:01:58;2.20;99.90
3866;DHT22;1948;53.250;10.412;2024-01-06T00:04:30;2.20;99.90
3866;DHT22;1948;53.250;10.412;2024-01-06T00:07:00;2.00;99.90
3866;DHT22;1948;53.250;10.412;2024-01-06T00:09:29;2.10;99.90
3866;DHT22;1948;53.250;10.412;2024-01-06T00:11:56;2.00;99.90
3866;DHT22;1948;53.250;10.412;2024-01-06T00:14:23;2.00;99.90
3866;DHT22;1948;53.250;10.412;2024-01-06T00:16:50;2.00;99.90
3866;DHT22;1948;53.250;10.412;2024-01-06T00:19:17;2.10;99.90
3866;DHT22;1948;53.250;10.412;2024-01-06T00:21:47;2.00;99.90
3866;DHT22;1948;53.250;10.412;2024-01-06T00:24:15;2.00;99.90
3866;DHT22;1948;53.250;10.412;2024-01-06T00:26:42;2.10;99.90
3866;DHT22;1948;53.250;10.412;2024-01-06T00:29:12;2.10;99.90
3866;DHT22;1948;53.250;10.412;2024-01-06T00:31:39;2.10;99.90
3866;DHT22;1948;53.250;10.412;2024-01-06T00:34:07;2.10;99.90
3866;DHT22;1948;53.250;10.412;2024-01-06T00:36:34;2.10;99.90
3866;DHT22;1948;53.250;10.412;2024-01-06T00:39:03;2.00;99.90
3866;DHT22;1948;53.250;10.412;2024-01-06T00:41:33;2.20;99.90
3866;DHT22;1948;53.250;10.412;2024-01-06T00:44:00;2.20;99.90
3866;DHT22;1948;53.250;10.412;2024-01-06T00:46:27;2.30;99.90
3866;DHT22;1948;53.250;10.412;2024-01-06T00:48:56;2.20;99.90
3866;DHT22;1948;53.250;10.412;2024-01-06T00:51:25;2.20;99.90
3866;DHT22;1948;53.250;10.412;2024-01-06T00:53:52;2.10;99.90
3866;DHT22;1948;53.250;10.412;2024-01-06T00:56:22;2.20;99.90
3866;DHT22;1948;53.250;10.412;2024-01-06T00:58:49;2.20;99.90
3866;DHT22;1948;53.250;10.412;2024-01-06T01:01:18;2.30;99.90
3866;DHT22;1948;53.250;10.412;2024-01-06T01:03:45;2.30;99.90
3866;DHT22;1948;53.250;10.412;2024-01-06T01:06:12;2.20;99.90
3866;DHT22;1948;53.250;10.412;2024-01-06T01:08:39;2.20;99.90
3866;DHT22;1948;53.250;10.412;2024-01-06T01:11:06;2.20;99.90
3866;DHT22;1948;53.250;10.412;2024-01-06T01:13:36;2.30;99.90
3866;DHT22;1948;53.250;10.412;2024-01-06T01:16:05;2.20;99.90
3866;DHT22;1948;53.250;10.412;2024-01-06T01:18:33;2.20;99.90
3866;DHT22;1948;53.250;10.412;2024-01-06T01:21:05;2.30;99.90
3866;DHT22;1948;53.250;10.412;2024-01-06T01:23:34;2.30;99.90
3866;DHT22;1948;53.250;10.412;2024-01-06T01:26:02;2.40;99.90
3866;DHT22;1948;53.250;10.412;2024-01-06T01:28:29;2.30;99.90
3866;DHT22;1948;53.250;10.412;2024-01-06T01:31:00;2.30;99.90
3866;DHT22;1948;53.250;10.412;2024-01-06T01:33:28;2.20;99.90
3866;DHT22;1948;53.250;10.412;2024-01-06T01:35:57;2.20;99.90
3866;DHT22;1948;53.250;10.412;2024-01-06T01:38:28;2.20;99.90
3866;DHT22;1948;53.250;10.412;2024-01-06T01:40:58;2.30;99.90
3866;DHT22;1948;53.250;10.412;2024-01-06T01:43:30;2.30;99.90
3866;DHT22;1948;53.250;10.412;2024-01-06T01:46:00;2.40;99.90
3866;DHT22;1948;53.250;10.412;2024-01-06T01:48:30;2.40;99.90
3866;DHT22;1948;53.250;10.412;2024-01-06T01:50:58;2.30;99.90
3866;DHT22;1948;53.250;10.412;2024-01-06T01:53:29;2.20;99.90
3866;DHT22;1948;53.250;10.412;2024-01-06T01:55:58;2.20;99.90
3866;DHT22;1948;53.250;10.412;2024-01-06T01:58:25;2.20;99.90
3866;DHT22;1948;53.250;10.412;2024-01-06T02:00:52;2.20;99.90
3866;DHT22;1948;53.250;10.412;2024-01-06T02:03:20;2.20;99.90
3866;DHT22;1948;53.250;10.412;2024-01-06T02:05:49;2.20;99.90
3866;DHT22;1948;53.250;10.412;2024-01-06T02:08:19;2.10;99.90
3866;DHT22;1948;53.250;10.412;2024-01-06T02:10:46;2.10;99.90
3866;DHT22;1948;53.250;10.412;2024-01-06T02:13:18;2.00;99.90
3866;DHT22;1948;53.250;10.412;2024-01-06T02:15:45;2.10;99.90
3866;DHT22;1948;53.250;10.412;2024-01-06T02:18:12;2.10;99.90
3866;DHT22;1948;53.250;10.412;2024-01-06T02:20:43;2.10;99.90
3866;DHT22;1948;53.250;10.412;2024-01-06T02:23:13;2.10;99.90
3866;DHT22;1948;53.250;10.412;2024-01-06T02:25:40;2.10;99.90
3866;DHT22;1948;53.250;10.412;2024-01-06T02:28:09;2.10;99.90
3866;DHT22;1948;53.250;10.412;2024-01-06T02:30:36;2.20;99.90
3866;DHT22;1948;53.250;10.412;2024-01-06T02:33:08;2.20;99.90
3866;DHT22;1948;53.250;10.412;2024-01-06T02:35:35;2.20;99.90
3866;DHT22;1948;53.250;10.412;2024-01-06T02:38:03;2.10;99.90
3866;DHT22;1948;53.250;10.412;2024-01-06T02:40:30;2.20;99.90
3866;DHT22;1948;53.250;10.412;2024-01-06T02:42:57;2.10;99.90
3866;DHT22;1948;53.250;10.412;2024-01-06T02:45:24;2.20;99.90
3866;DHT22;1948;53.250;10.412;2024-01-06T02:47:55;2.20;99.90
3866;DHT22;1948;53.250;10.412;2024-01-06T02:50:25;2.10;99.90
3866;DHT22;1948;53.250;10.412;2024-01-06T02:52:52;2.10;99.90
3866;DHT22;1948;53.250;10.412;2024-01-06T02:55:19;2.10;99.90
3866;DHT22;1948;53.250;10.412;2024-01-06T02:57:49;2.20;99.90
3866;DHT22;1948;53.250;10.412;2024-01-06T03:00:16;2.10;99.90
3866;DHT22;1948;53.250;10.412;2024-01-06T03:02:47;2.20;99.90
3866;DHT22;1948;53.250;10.412;2024-01-06T03:05:14;2.20;99.90
3866;DHT22;1948;53.250;10.412;2024-01-06T03:07:41;2.20;99.90
3866;DHT22;1948;53.250;10.412;2024-01-06T03:10:08;2.20;99.90
3866;DHT22;1948;53.250;10.412;2024-01-06T03:12:35;2.10;99.90
3866;DHT22;1948;53.250;10.412;2024-01-06T03:15:05;2.00;99.90
3866;DHT22;1948;53.250;10.412;2024-01-06T03:17:33;1.90;99.90
3866;DHT22;1948;53.250;10.412;2024-01-06T03:20:04;1.90;99.90
3866;DHT22;1948;53.250;10.412;2024-01-06T03:22:34;1.90;99.90
3866;DHT22;1948;53.250;10.412;2024-01-06T03:25:05;1.90;99.90
3866;DHT22;1948;53.250;10.412;2024-01-06T03:27:34;1.90;99.90
3866;DHT22;1948;53.250;10.412;2024-01-06T03:30:01;1.90;99.90
3866;DHT22;1948;53.250;10.412;2024-01-06T03:32:28;2.00;99.90
3866;DHT22;1948;53.250;10.412;2024-01-06T03:35:00;2.00;99.90
3866;DHT22;1948;53.250;10.412;2024-01-06T03:37:29;2.10;99.90
3866;DHT22;1948;53.250;10.412;2024-01-06T03:39:56;2.20;99.90
3866;DHT22;1948;53.250;10.412;2024-01-06T03:42:29;2.00;99.90
3866;DHT22;1948;53.250;10.412;2024-01-06T03:44:56;2.10;99.90
3866;DHT22;1948;53.250;10.412;2024-01-06T03:47:26;2.00;99.90
3866;DHT22;1948;53.250;10.412;2024-01-06T03:49:53;2.00;99.90
3866;DHT22;1948;53.250;10.412;2024-01-06T03:52:22;2.10;99.90
3866;DHT22;1948;53.250;10.412;2024-01-06T03:54:54;2.10;99.90
3866;DHT22;1948;53.250;10.412;2024-01-06T03:57:22;2.10;99.90
3866;DHT22;1948;53.250;10.412;2024-01-06T03:59:51;2.20;99.90
3866;DHT22;1948;53.250;10.412;2024-01-06T04:02:18;2.20;99.90
3866;DHT22;1948;53.250;10.412;2024-01-06T04:04:51;2.20;99.90
3866;DHT22;1948;53.250;10.412;2024-01-06T04:07:17;2.20;99.90
3866;DHT22;1948;53.250;10.412;2024-01-06T04:09:44;2.20;99.90
3866;DHT22;1948;53.250;10.412;2024-01-06T04:12:14;2.20;99.90
3866;DHT22;1948;53.250;10.412;2024-01-06T04:14:43;2.10;99.90
3866;DHT22;1948;53.250;10.412;2024-01-06T04:17:10;2.10;99.90
3866;DHT22;1948;53.250;10.412;2024-01-06T04:19:37;2.10;99.90
3866;DHT22;1948;53.250;10.412;2024-01-06T04:22:04;2.00;99.90
3866;DHT22;1948;53.250;10.412;2024-01-06T04:24:31;2.00;99.90
3866;DHT22;1948;53.250;10.412;2024-01-06T04:27:07;2.00;99.90
3866;DHT22;1948;53.250;10.412;2024-01-06T04:29:38;2.00;99.90
3866;DHT22;1948;53.250;10.412;2024-01-06T04:32:06;2.10;99.90
3866;DHT22;1948;53.250;10.412;2024-01-06T04:34:34;2.20;99.90
3866;DHT22;1948;53.250;10.412;2024-01-06T04:37:01;2.20;99.90
3866;DHT22;1948;53.250;10.412;2024-01-06T04:39:30;2.20;99.90
3866;DHT22;1948;53.250;10.412;2024-01-06T04:42:03;2.30;99.90
3866;DHT22;1948;53.250;10.412;2024-01-06T04:44:31;2.30;99.90
3866;DHT22;1948;53.250;10.412;2024-01-06T04:46:58;2.20;99.90
3866;DHT22;1948;53.250;10.412;2024-01-06T04:49:25;2.10;99.90
3866;DHT22;1948;53.250;10.412;2024-01-06T04:51:52;2.10;99.90
3866;DHT22;1948;53.250;10.412;2024-01-06T04:54:21;2.20;99.90
3866;DHT22;1948;53.250;10.412;2024-01-06T04:56:50;2.10;99.90
3866;DHT22;1948;53.250;10.412;2024-01-06T04:59:22;2.20;99.90
3866;DHT22;1948;53.250;10.412;2024-01-06T05:01:50;2.10;99.90
3866;DHT22;1948;53.250;10.412;2024-01-06T05:04:20;2.00;99.90
3866;DHT22;1948;53.250;10.412;2024-01-06T05:06:53;2.00;99.90
3866;DHT22;1948;53.250;10.412;2024-01-06T05:09:21;2.10;99.90
3866;DHT22;1948;53.250;10.412;2024-01-06T05:11:53;2.00;99.90
3866;DHT22;1948;53.250;10.412;2024-01-06T05:14:27;2.00;99.90
3866;DHT22;1948;53.250;10.412;2024-01-06T05:16:56;1.90;99.90
3866;DHT22;1948;53.250;10.412;2024-01-06T05:19:23;1.90;99.90
3866;DHT22;1948;53.250;10.412;2024-01-06T05:21:50;1.90;99.90
3866;DHT22;1948;53.250;10.412;2024-01-06T05:24:18;1.90;99.90
3866;DHT22;1948;53.250;10.412;2024-01-06T05:26:45;2.00;99.90
3866;DHT22;1948;53.250;10.412;2024-01-06T05:29:12;2.00;99.90
3866;DHT22;1948;53.250;10.412;2024-01-06T05:31:42;2.00;99.90
3866;DHT22;1948;53.250;10.412;2024-01-06T05:34:09;2.00;99.90
3866;DHT22;1948;53.250;10.412;2024-01-06T05:36:36;2.00;99.90
3866;DHT22;1948;53.250;10.412;2024-01-06T05:39:05;2.00;99.90
3866;DHT22;1948;53.250;10.412;2024-01-06T05:41:42;2.00;99.90
3866;DHT22;1948;53.250;10.412;2024-01-06T05:44:11;2.00;99.90
3866;DHT22;1948;53.250;10.412;2024-01-06T05:46:39;2.10;99.90
3866;DHT22;1948;53.250;10.412;2024-01-06T05:49:09;2.00;99.90
3866;DHT22;1948;53.250;10.412;2024-01-06T05:51:44;2.00;99.90
3866;DHT22;1948;53.250;10.412;2024-01-06T05:54:12;2.00;99.90
3866;DHT22;1948;53.250;10.412;2024-01-06T05:56:40;2.00;99.90
3866;DHT22;1948;53.250;10.412;2024-01-06T05:59:07;2.00;99.90
3866;DHT22;1948;53.250;10.412;2024-01-06T06:01:34;2.00;99.90
3866;DHT22;1948;53.250;10.412;2024-01-06T06:04:03;2.00;99.90
3866;DHT22;1948;53.250;10.412;2024-01-06T06:06:31;2.00;99.90
3866;DHT22;1948;53.250;10.412;2024-01-06T06:09:00;2.00;99.90
3866;DHT22;1948;53.250;10.412;2024-01-06T06:11:27;2.00;99.90
3866;DHT22;1948;53.250;10.412;2024-01-06T06:13:54;2.10;99.90
3866;DHT22;1948;53.250;10.412;2024-01-06T06:16:23;2.10;99.90
3866;DHT22;1948;53.250;10.412;2024-01-06T06:18:51;2.10;99.90
3866;DHT22;1948;53.250;10.412;2024-01-06T06:21:20;2.00;99.90
3866;DHT22;1948;53.250;10.412;2024-01-06T06:23:47;2.00;99.90
3866;DHT22;1948;53.250;10.412;2024-01-06T06:26:16;2.00;99.90
3866;DHT22;1948;53.250;10.412;2024-01-06T06:28:43;2.00;99.90
3866;DHT22;1948;53.250;10.412;2024-01-06T06:31:10;2.10;99.90
3866;DHT22;1948;53.250;10.412;2024-01-06T06:33:39;2.10;99.90
3866;DHT22;1948;53.250;10.412;2024-01-06T06:36:07;2.10;99.90
3866;DHT22;1948;53.250;10.412;2024-01-06T06:38:34;2.10;99.90
3866;DHT22;1948;53.250;10.412;2024-01-06T06:41:03;2.00;99.90
3866;DHT22;1948;53.250;10.412;2024-01-06T06:43:35;2.00;99.90
3866;DHT22;1948;53.250;10.412;2024-01-06T06:46:04;1.90;99.90
3866;DHT22;1948;53.250;10.412;2024-01-06T06:48:31;1.90;99.90
3866;DHT22;1948;53.250;10.412;2024-01-06T06:50:58;1.90;99.90
3866;DHT22;1948;53.250;10.412;2024-01-06T06:53:25;1.80;99.90
3866;DHT22;1948;53.250;10.412;2024-01-06T06:55:54;1.80;99.90
3866;DHT22;1948;53.250;10.412;2024-01-06T06:58:21;1.70;99.90
3866;DHT22;1948;53.250;10.412;2024-01-06T07:00:51;1.70;99.90
3866;DHT22;1948;53.250;10.412;2024-01-06T07:03:20;1.70;99.90
3866;DHT22;1948;53.250;10.412;2024-01-06T07:05:49;1.80;99.90
3866;DHT22;1948;53.250;10.412;2024-01-06T07:08:19;1.70;99.90
3866;DHT22;1948;53.250;10.412;2024-01-06T07:10:46;1.70;99.90
3866;DHT22;1948;53.250;10.412;2024-01-06T07:13:13;1.80;99.90
3866;DHT22;1948;53.250;10.412;2024-01-06T07:15:40;1.80;99.90
3866;DHT22;1948;53.250;10.412;2024-01-06T07:18:08;1.70;99.90
3866;DHT22;1948;53.250;10.412;2024-01-06T07:20:37;1.60;99.90
3866;DHT22;1948;53.250;10.412;2024-01-06T07:23:07;1.70;99.90
3866;DHT22;1948;53.250;10.412;2024-01-06T07:25:34;1.60;99.90
3866;DHT22;1948;53.250;10.412;2024-01-06T07:28:05;1.70;99.90
3866;DHT22;1948;53.250;10.412;2024-01-06T07:30:36;1.80;99.90
3866;DHT22;1948;53.250;10.412;2024-01-06T07:33:05;1.70;99.90
3866;DHT22;1948;53.250;10.412;2024-01-06T07:35:32;1.70;99.90
3866;DHT22;1948;53.250;10.412;2024-01-06T07:37:59;1.70;99.90
3866;DHT22;1948;53.250;10.412;2024-01-06T07:40:26;1.70;99.90
3866;DHT22;1948;53.250;10.412;2024-01-06T07:42:53;1.80;99.90
3866;DHT22;1948;53.250;10.412;2024-01-06T07:45:23;1.80;99.90
3866;DHT22;1948;53.250;10.412;2024-01-06T07:47:52;1.80;99.90
3866;DHT22;1948;53.250;10.412;2024-01-06T07:50:22;1.80;99.90
3866;DHT22;1948;53.250;10.412;2024-01-06T07:52:49;1.70;99.90
3866;DHT22;1948;53.250;10.412;2024-01-06T07:55:15;1.60;99.90
3866;DHT22;1948;53.250;10.412;2024-01-06T07:57:43;1.70;99.90
3866;DHT22;1948;53.250;10.412;2024-01-06T08:00:11;1.70;99.90
3866;DHT22;1948;53.250;10.412;2024-01-06T08:02:42;1.70;99.90
3866;DHT22;1948;53.250;10.412;2024-01-06T08:05:09;1.60;99.90
3866;DHT22;1948;53.250;10.412;2024-01-06T08:07:39;1.50;99.90
3866;DHT22;1948;53.250;10.412;2024-01-06T08:10:06;1.50;99.90
3866;DHT22;1948;53.250;10.412;2024-01-06T08:12:35;1.50;99.90
3866;DHT22;1948;53.250;10.412;2024-01-06T08:15:03;1.50;99.90
3866;DHT22;1948;53.250;10.412;2024-01-06T08:17:31;1.60;99.90
3866;DHT22;1948;53.250;10.412;2024-01-06T08:19:58;1.60;99.90
3866;DHT22;1948;53.250;10.412;2024-01-06T08:22:29;1.50;99.90
3866;DHT22;1948;53.250;10.412;2024-01-06T08:24:55;1.60;99.90
3866;DHT22;1948;53.250;10.412;2024-01-06T08:27:25;1.60;99.90
3866;DHT22;1948;53.250;10.412;2024-01-06T08:29:55;1.60;99.90
3866;DHT22;1948;53.250;10.412;2024-01-06T08:32:25;1.50;99.90
3866;DHT22;1948;53.250;10.412;2024-01-06T08:34:55;1.50;99.90
3866;DHT22;1948;53.250;10.412;2024-01-06T08:37:22;1.50;99.90
3866;DHT22;1948;53.250;10.412;2024-01-06T08:39:49;1.40;99.90
3866;DHT22;1948;53.250;10.412;2024-01-06T08:42:16;1.40;99.90
3866;DHT22;1948;53.250;10.412;2024-01-06T08:44:45;1.50;99.90
3866;DHT22;1948;53.250;10.412;2024-01-06T08:47:13;1.50;99.90
3866;DHT22;1948;53.250;10.412;2024-01-06T08:49:42;1.50;99.90
3866;DHT22;1948;53.250;10.412;2024-01-06T08:52:09;1.50;99.90
3866;DHT22;1948;53.250;10.412;2024-01-06T08:54:36;1.50;99.90
3866;DHT22;1948;53.250;10.412;2024-01-06T08:57:05;1.40;99.90
3866;DHT22;1948;53.250;10.412;2024-01-06T08:59:33;1.40;99.90
3866;DHT22;1948;53.250;10.412;2024-01-06T09:02:02;1.40;99.90
3866;DHT22;1948;53.250;10.412;2024-01-06T09:04:29;1.40;99.90
3866;DHT22;1948;53.250;10.412;2024-01-06T09:06:56;1.50;99.90
3866;DHT22;1948;53.250;10.412;2024-01-06T09:09:28;1.60;99.90
3866;DHT22;1948;53.250;10.412;2024-01-06T09:11:57;1.60;99.90
3866;DHT22;1948;53.250;10.412;2024-01-06T09:14:27;1.60;99.90
3866;DHT22;1948;53.250;10.412;2024-01-06T09:16:56;1.60;99.90
3866;DHT22;1948;53.250;10.412;2024-01-06T09:19:23;1.60;99.90
3866;DHT22;1948;53.250;10.412;2024-01-06T09:21:51;1.60;99.90
3866;DHT22;1948;53.250;10.412;2024-01-06T09:24:18;1.50;99.90
3866;DHT22;1948;53.250;10.412;2024-01-06T09:26:47;1.60;99.90
3866;DHT22;1948;53.250;10.412;2024-01-06T09:29:16;1.60;99.90
3866;DHT22;1948;53.250;10.412;2024-01-06T09:31:48;1.60;99.90
3866;DHT22;1948;53.250;10.412;2024-01-06T09:34:15;1.70;99.90
3866;DHT22;1948;53.250;10.412;2024-01-06T09:36:42;1.70;99.90
3866;DHT22;1948;53.250;10.412;2024-01-06T09:39:11;1.70;99.90
3866;DHT22;1948;53.250;10.412;2024-01-06T09:41:43;1.70;99.90
3866;DHT22;1948;53.250;10.412;2024-01-06T09:44:10;1.50;99.90
3866;DHT22;1948;53.250;10.412;2024-01-06T09:46:42;1.50;99.90
3866;DHT22;1948;53.250;10.412;2024-01-06T09:49:12;1.50;99.90
3866;DHT22;1948;53.250;10.412;2024-01-06T09:51:43;1.50;99.90
3866;DHT22;1948;53.250;10.412;2024-01-06T09:54:23;1.60;99.90
3866;DHT22;1948;53.250;10.412;2024-01-06T09:56:55;1.60;99.90
3866;DHT22;1948;53.250;10.412;2024-01-06T09:59:24;1.60;99.90
3866;DHT22;1948;53.250;10.412;2024-01-06T10:01:52;1.60;99.90
3866;DHT22;1948;53.250;10.412;2024-01-06T10:04:22;1.60;99.90
3866;DHT22;1948;53.250;10.412;2024-01-06T10:06:50;1.50;99.90
3866;DHT22;1948;53.250;10.412;2024-01-06T10:09:26;1.50;99.90
3866;DHT22;1948;53.250;10.412;2024-01-06T10:11:57;1.50;99.90
3866;DHT22;1948;53.250;10.412;2024-01-06T10:14:26;1.60;99.90
3866;DHT22;1948;53.250;10.412;2024-01-06T10:16:58;1.60;99.90
3866;DHT22;1948;53.250;10.412;2024-01-06T10:19:28;1.60;99.90
3866;DHT22;1948;53.250;10.412;2024-01-06T10:21:56;1.60;99.90
3866;DHT22;1948;53.250;10.412;2024-01-06T10:24:29;1.60;99.90
3866;DHT22;1948;53.250;10.412;2024-01-06T10:26:58;1.60;99.90
3866;DHT22;1948;53.250;10.412;2024-01-06T10:29:26;1.70;99.90
3866;DHT22;1948;53.250;10.412;2024-01-06T10:31:54;1.70;99.90
3866;DHT22;1948;53.250;10.412;2024-01-06T10:34:23;1.70;99.90
3866;DHT22;1948;53.250;10.412;2024-01-06T10:36:51;1.70;99.90
3866;DHT22;1948;53.250;10.412;2024-01-06T10:39:21;1.80;99.90
3866;DHT22;1948;53.250;10.412;2024-01-06T10:41:49;1.80;99.90
3866;DHT22;1948;53.250;10.412;2024-01-06T10:44:16;1.80;99.90
3866;DHT22;1948;53.250;10.412;2024-01-06T10:46:44;1.80;99.90
3866;DHT22;1948;53.250;10.412;2024-01-06T10:49:12;1.70;99.90
3866;DHT22;1948;53.250;10.412;2024-01-06T10:51:44;1.80;99.90
3866;DHT22;1948;53.250;10.412;2024-01-06T10:54:15;1.90;99.90
3866;DHT22;1948;53.250;10.412;2024-01-06T10:56:47;1.80;99.90
3866;DHT22;1948;53.250;10.412;2024-01-06T10:59:17;1.90;99.90
3866;DHT22;1948;53.250;10.412;2024-01-06T11:01:45;1.80;99.90
3866;DHT22;1948;53.250;10.412;2024-01-06T11:04:13;1.90;99.90
3866;DHT22;1948;53.250;10.412;2024-01-06T11:06:41;1.90;99.90
3866;DHT22;1948;53.250;10.412;2024-01-06T11:09:18;1.80;99.90
3866;DHT22;1948;53.250;10.412;2024-01-06T11:11:49;1.90;99.90
3866;DHT22;1948;53.250;10.412;2024-01-06T11:14:23;2.00;99.90
3866;DHT22;1948;53.250;10.412;2024-01-06T11:16:52;2.00;99.90
3866;DHT22;1948;53.250;10.412;2024-01-06T11:22:23;2.00;99.90
3866;DHT22;1948;53.250;10.412;2024-01-06T11:25:05;2.10;99.90
3866;DHT22;1948;53.250;10.412;2024-01-06T11:27:37;2.20;99.90
3866;DHT22;1948;53.250;10.412;2024-01-06T11:30:05;2.10;99.90
3866;DHT22;1948;53.250;10.412;2024-01-06T11:32:41;2.10;99.90
3866;DHT22;1948;53.250;10.412;2024-01-06T11:35:16;2.10;99.90
3866;DHT22;1948;53.250;10.412;2024-01-06T11:42:52;2.10;99.90
3866;DHT22;1948;53.250;10.412;2024-01-06T11:45:25;2.20;99.90
3866;DHT22;1948;53.250;10.412;2024-01-06T11:47:56;2.10;99.90
3866;DHT22;1948;53.250;10.412;2024-01-06T11:50:26;2.10;99.90
3866;DHT22;1948;53.250;10.412;2024-01-06T11:52:56;2.10;99.90
3866;DHT22;1948;53.250;10.412;2024-01-06T11:55:26;2.00;99.90
3866;DHT22;1948;53.250;10.412;2024-01-06T11:58:01;2.00;99.90
3866;DHT22;1948;53.250;10.412;2024-01-06T12:00:34;2.00;99.90
3866;DHT22;1948;53.250;10.412;2024-01-06T12:03:07;2.00;99.90
3866;DHT22;1948;53.250;10.412;2024-01-06T12:05:37;2.00;99.90
3866;DHT22;1948;53.250;10.412;2024-01-06T12:08:06;2.10;99.90
3866;DHT22;1948;53.250;10.412;2024-01-06T12:10:35;2.00;99.90
3866;DHT22;1948;53.250;10.412;2024-01-06T12:13:04;2.00;99.90
3866;DHT22;1948;53.250;10.412;2024-01-06T12:15:36;2.00;99.90
3866;DHT22;1948;53.250;10.412;2024-01-06T12:18:07;2.00;99.90
3866;DHT22;1948;53.250;10.412;2024-01-06T12:20:34;2.00;99.90
3866;DHT22;1948;53.250;10.412;2024-01-06T12:23:01;1.90;99.90
3866;DHT22;1948;53.250;10.412;2024-01-06T12:25:34;2.00;99.90
3866;DHT22;1948;53.250;10.412;2024-01-06T12:28:06;2.00;99.90
3866;DHT22;1948;53.250;10.412;2024-01-06T12:30:34;2.10;99.90
3866;DHT22;1948;53.250;10.412;2024-01-06T12:33:03;2.10;99.90
3866;DHT22;1948;53.250;10.412;2024-01-06T12:35:34;2.00;99.90
3866;DHT22;1948;53.250;10.412;2024-01-06T12:38:04;2.00;99.90
3866;DHT22;1948;53.250;10.412;2024-01-06T12:40:38;2.00;99.90
3866;DHT22;1948;53.250;10.412;2024-01-06T12:43:07;2.10;99.90
3866;DHT22;1948;53.250;10.412;2024-01-06T12:45:37;2.00;99.90
3866;DHT22;1948;53.250;10.412;2024-01-06T12:48:07;2.10;99.90
3866;DHT22;1948;53.250;10.412;2024-01-06T12:50:34;2.10;99.90
3866;DHT22;1948;53.250;10.412;2024-01-06T12:53:01;2.10;99.90
3866;DHT22;1948;53.250;10.412;2024-01-06T12:55:31;2.10;99.90
3866;DHT22;1948;53.250;10.412;2024-01-06T12:57:58;2.00;99.90
3866;DHT22;1948;53.250;10.412;2024-01-06T13:00:28;2.00;99.90
3866;DHT22;1948;53.250;10.412;2024-01-06T13:02:56;1.90;99.90
3866;DHT22;1948;53.250;10.412;2024-01-06T13:05:23;1.90;99.90
3866;DHT22;1948;53.250;10.412;2024-01-06T13:07:50;1.80;99.90
3866;DHT22;1948;53.250;10.412;2024-01-06T13:10:19;1.80;99.90
3866;DHT22;1948;53.250;10.412;2024-01-06T13:12:48;1.70;99.90
3866;DHT22;1948;53.250;10.412;2024-01-06T13:15:22;1.80;99.90
3866;DHT22;1948;53.250;10.412;2024-01-06T13:17:49;1.90;99.90
3866;DHT22;1948;53.250;10.412;2024-01-06T13:20:19;1.90;99.90
3866;DHT22;1948;53.250;10.412;2024-01-06T13:22:47;1.80;99.90
3866;DHT22;1948;53.250;10.412;2024-01-06T13:25:14;1.70;99.90
3866;DHT22;1948;53.250;10.412;2024-01-06T13:27:41;1.70;99.90
3866;DHT22;1948;53.250;10.412;2024-01-06T13:30:09;1.60;99.90
3866;DHT22;1948;53.250;10.412;2024-01-06T13:32:44;1.60;99.90
3866;DHT22;1948;53.250;10.412;2024-01-06T13:35:16;1.60;99.90
3866;DHT22;1948;53.250;10.412;2024-01-06T13:37:47;1.60;99.90
3866;DHT22;1948;53.250;10.412;2024-01-06T13:40:21;1.50;99.90
3866;DHT22;1948;53.250;10.412;2024-01-06T13:42:50;1.50;99.90
3866;DHT22;1948;53.250;10.412;2024-01-06T13:45:18;1.60;99.90
3866;DHT22;1948;53.250;10.412;2024-01-06T13:47:46;1.60;99.90
3866;DHT22;1948;53.250;10.412;2024-01-06T13:50:17;1.50;99.90
3866;DHT22;1948;53.250;10.412;2024-01-06T13:52:47;1.50;99.90
3866;DHT22;1948;53.250;10.412;2024-01-06T13:55:16;1.50;99.90
3866;DHT22;1948;53.250;10.412;2024-01-06T13:57:43;1.50;99.90
3866;DHT22;1948;53.250;10.412;2024-01-06T14:00:12;1.50;99.90
3866;DHT22;1948;53.250;10.412;2024-01-06T14:02:50;1.40;99.90
3866;DHT22;1948;53.250;10.412;2024-01-06T14:05:19;1.40;99.90
3866;DHT22;1948;53.250;10.412;2024-01-06T14:07:48;1.50;99.90
3866;DHT22;1948;53.250;10.412;2024-01-06T14:10:18;1.40;99.90
3866;DHT22;1948;53.250;10.412;2024-01-06T14:12:47;1.50;99.90
3866;DHT22;1948;53.250;10.412;2024-01-06T14:15:18;1.50;99.90
3866;DHT22;1948;53.250;10.412;2024-01-06T14:17:50;1.60;99.90
3866;DHT22;1948;53.250;10.412;2024-01-06T14:20:21;1.60;99.90
3866;DHT22;1948;53.250;10.412;2024-01-06T14:22:51;1.70;99.90
3866;DHT22;1948;53.250;10.412;2024-01-06T14:25:19;1.70;99.90
3866;DHT22;1948;53.250;10.412;2024-01-06T14:27:53;1.70;99.90
3866;DHT22;1948;53.250;10.412;2024-01-06T14:30:23;1.70;99.90
3866;DHT22;1948;53.250;10.412;2024-01-06T14:32:50;1.60;99.90
3866;DHT22;1948;53.250;10.412;2024-01-06T14:35:18;1.50;99.90
3866;DHT22;1948;53.250;10.412;2024-01-06T14:37:47;1.40;99.90
3866;DHT22;1948;53.250;10.412;2024-01-06T14:40:17;1.30;99.90
3866;DHT22;1948;53.250;10.412;2024-01-06T14:42:48;1.30;99.90
3866;DHT22;1948;53.250;10.412;2024-01-06T14:45:16;1.20;99.90
3866;DHT22;1948;53.250;10.412;2024-01-06T14:47:46;1.20;99.90
3866;DHT22;1948;53.250;10.412;2024-01-06T14:50:20;1.10;99.90
3866;DHT22;1948;53.250;10.412;2024-01-06T14:52:48;1.10;99.90
3866;DHT22;1948;53.250;10.412;2024-01-06T14:55:15;1.10;99.90
3866;DHT22;1948;53.250;10.412;2024-01-06T14:57:45;1.10;99.90
3866;DHT22;1948;53.250;10.412;2024-01-06T15:00:12;1.10;99.90
3866;DHT22;1948;53.250;10.412;2024-01-06T15:02:39;1.10;99.90
3866;DHT22;1948;53.250;10.412;2024-01-06T15:05:17;1.10;99.90
3866;DHT22;1948;53.250;10.412;2024-01-06T15:07:44;1.10;99.90
3866;DHT22;1948;53.250;10.412;2024-01-06T15:10:14;1.10;99.90
3866;DHT22;1948;53.250;10.412;2024-01-06T15:12:42;1.00;99.90
3866;DHT22;1948;53.250;10.412;2024-01-06T15:15:13;1.10;99.90
3866;DHT22;1948;53.250;10.412;2024-01-06T15:17:42;1.20;99.90
3866;DHT22;1948;53.250;10.412;2024-01-06T15:20:12;1.20;99.90
3866;DHT22;1948;53.250;10.412;2024-01-06T15:22:43;1.10;99.90
3866;DHT22;1948;53.250;10.412;2024-01-06T15:25:19;1.10;99.90
3866;DHT22;1948;53.250;10.412;2024-01-06T15:27:46;1.20;99.90
3866;DHT22;1948;53.250;10.412;2024-01-06T15:30:16;1.20;99.90
3866;DHT22;1948;53.250;10.412;2024-01-06T15:32:44;1.20;99.90
3866;DHT22;1948;53.250;10.412;2024-01-06T15:35:14;1.20;99.90
3866;DHT22;1948;53.250;10.412;2024-01-06T15:37:44;1.20;99.90
3866;DHT22;1948;53.250;10.412;2024-01-06T15:40:23;1.20;99.90
3866;DHT22;1948;53.250;10.412;2024-01-06T15:42:50;1.20;99.90
3866;DHT22;1948;53.250;10.412;2024-01-06T15:45:17;1.30;99.90
3866;DHT22;1948;53.250;10.412;2024-01-06T15:47:44;1.30;99.90
3866;DHT22;1948;53.250;10.412;2024-01-06T15:50:15;1.30;99.90
3866;DHT22;1948;53.250;10.412;2024-01-06T15:52:43;1.40;99.90
3866;DHT22;1948;53.250;10.412;2024-01-06T15:55:14;1.40;99.90
3866;DHT22;1948;53.250;10.412;2024-01-06T15:57:42;1.40;99.90
3866;DHT22;1948;53.250;10.412;2024-01-06T16:00:10;1.50;99.90
3866;DHT22;1948;53.250;10.412;2024-01-06T16:02:37;1.40;99.90
3866;DHT22;1948;53.250;10.412;2024-01-06T16:05:05;1.40;99.90
3866;DHT22;1948;53.250;10.412;2024-01-06T16:07:33;1.30;99.90
3866;DHT22;1948;53.250;10.412;2024-01-06T16:10:02;1.30;99.90
3866;DHT22;1948;53.250;10.412;2024-01-06T16:12:30;1.30;99.90
3866;DHT22;1948;53.250;10.412;2024-01-06T16:14:57;1.30;99.90
3866;DHT22;1948;53.250;10.412;2024-01-06T16:17:27;1.30;99.90
3866;DHT22;1948;53.250;10.412;2024-01-06T16:19:54;1.20;99.90
3866;DHT22;1948;53.250;10.412;2024-01-06T16:22:24;1.20;99.90